Time;durP1;ratioP1;P1;durP2;ratioP2;P2;SDS_P1;SDS_P2;PMS_P1;PMS_P2;Temp;Humidity;BMP_temperature;BMP_pressure;BME280_temperature;BME280_humidity;BME280_pressure;Samples;Min_cycle;Max_cycle;Signal;HPM_P1;HPM_P2
2021/04/20 00:00:31;;;;;;;13.32;3.80;;;;;;;23.53;39.44;99345.72;4528448;31;34096;-57
2021/04/20 00:02:58;;;;;;;9.05;4.25;;;;;;;23.53;39.59;99337.53;4521580;31;34041;-58
2021/04/20 00:05:25;;;;;;;11.27;4.18;;;;;;;23.52;39.55;99335.88;4523635;31;33845;-58
2021/04/20 00:07:53;;;;;;;10.70;4.22;;;;;;;23.52;39.49;99338.59;4531208;31;34485;-58
2021/04/20 00:10:20;;;;;;;10.43;3.95;;;;;;;23.53;39.54;99339.44;4516500;31;34309;-57
2021/04/20 00:12:49;;;;;;;9.98;4.15;;;;;;;23.51;39.54;99331.50;4530560;31;34404;-57
2021/04/20 00:15:21;;;;;;;11.23;3.90;;;;;;;23.52;39.48;99335.06;4530860;31;33603;-57
2021/04/20 00:17:53;;;;;;;8.93;4.00;;;;;;;23.52;39.54;99337.78;4520762;31;33567;-61
2021/04/20 00:20:20;;;;;;;12.02;3.53;;;;;;;23.50;39.63;99335.31;4530233;31;33807;-61
2021/04/20 00:22:47;;;;;;;11.65;3.90;;;;;;;23.51;39.71;99336.13;4511203;31;33897;-61
2021/04/20 00:25:15;;;;;;;11.00;4.25;;;;;;;23.50;39.60;99327.16;4515021;31;33809;-62
2021/04/20 00:27:42;;;;;;;11.45;4.10;;;;;;;23.49;39.85;99320.00;4516325;31;35131;-61
2021/04/20 00:30:10;;;;;;;11.02;3.95;;;;;;;23.49;39.91;99330.91;4527769;31;34104;-59
2021/04/20 00:32:37;;;;;;;11.50;4.55;;;;;;;23.50;39.98;99329.00;4518037;31;34635;-61
2021/04/20 00:35:05;;;;;;;9.40;3.95;;;;;;;23.48;39.94;99323.81;4514533;31;34815;-61
2021/04/20 00:37:33;;;;;;;7.57;3.75;;;;;;;23.48;39.96;99329.25;4513938;31;33703;-61
2021/04/20 00:40:03;;;;;;;8.30;3.30;;;;;;;23.49;39.89;99328.19;4515880;31;33386;-61
2021/04/20 00:42:30;;;;;;;7.62;3.80;;;;;;;23.48;39.94;99323.81;4516903;31;34653;-61
2021/04/20 00:44:58;;;;;;;8.93;3.67;;;;;;;23.48;39.83;99323.81;4529738;31;33889;-61
2021/04/20 00:47:25;;;;;;;9.10;3.87;;;;;;;23.47;39.90;99324.88;4527156;31;33758;-61
2021/04/20 00:49:52;;;;;;;10.05;3.87;;;;;;;23.47;39.87;99322.16;4516518;31;34487;-61
2021/04/20 00:52:19;;;;;;;9.20;4.15;;;;;;;23.47;39.79;99324.88;4516043;31;34750;-60
2021/04/20 00:54:46;;;;;;;15.70;4.30;;;;;;;23.46;39.76;99322.41;4516069;31;33599;-61
2021/04/20 00:57:14;;;;;;;8.77;3.83;;;;;;;23.46;39.72;99320.50;4516119;31;33769;-61
2021/04/20 00:59:41;;;;;;;10.02;3.85;;;;;;;23.46;39.73;99322.41;4515620;31;34360;-61
2021/04/20 01:02:08;;;;;;;8.27;3.83;;;;;;;23.44;39.72;99317.19;4516603;31;33790;-61
2021/04/20 01:04:35;;;;;;;13.93;3.72;;;;;;;23.44;39.79;99314.47;4517372;31;33854;-61
2021/04/20 01:07:02;;;;;;;10.45;3.80;;;;;;;23.44;39.80;99314.47;4532448;31;33713;-62
2021/04/20 01:09:30;;;;;;;10.68;3.53;;;;;;;23.44;39.97;99311.72;4515967;31;34205;-61
2021/04/20 01:11:57;;;;;;;12.40;3.97;;;;;;;23.44;40.04;99309.00;4502021;31;33920;-61
2021/04/20 01:14:24;;;;;;;20.70;5.45;;;;;;;23.43;40.00;99304.62;4503177;31;33983;-61
2021/04/20 01:16:51;;;;;;;10.35;4.28;;;;;;;23.43;39.92;99310.91;4526910;31;33663;-61
2021/04/20 01:19:18;;;;;;;10.00;3.97;;;;;;;23.42;39.90;99305.72;4532499;31;33310;-61
2021/04/20 01:21:46;;;;;;;15.48;3.97;;;;;;;23.42;39.95;99308.44;4504044;31;34389;-62
2021/04/20 01:24:25;;;;;;;11.77;4.10;;;;;;;23.41;39.83;99304.06;4511800;31;33876;-61
2021/04/20 01:26:53;;;;;;;10.00;3.55;;;;;;;23.41;39.76;99307.63;4523921;31;33623;-59
2021/04/20 01:29:21;;;;;;;12.02;3.75;;;;;;;23.41;39.82;99302.16;4510392;31;33242;-61
2021/04/20 01:31:48;;;;;;;10.73;3.80;;;;;;;23.41;39.75;99306.78;4515954;31;34462;-61
2021/04/20 01:34:15;;;;;;;13.40;4.18;;;;;;;23.41;39.79;99309.50;4515757;31;33978;-61
2021/04/20 01:36:43;;;;;;;11.07;3.40;;;;;;;23.40;39.81;99310.56;4516406;31;34314;-61
2021/04/20 01:39:10;;;;;;;9.38;3.92;;;;;;;23.39;39.86;99311.62;4515229;31;33296;-61
2021/04/20 01:41:37;;;;;;;8.95;3.58;;;;;;;23.39;39.74;99312.44;4529524;31;35204;-61
2021/04/20 01:44:05;;;;;;;9.20;3.33;;;;;;;23.39;39.77;99307.00;4521386;31;34814;-61
2021/04/20 01:46:32;;;;;;;7.47;3.05;;;;;;;23.38;39.78;99302.63;4516013;31;33717;-61
2021/04/20 01:48:59;;;;;;;6.82;3.03;;;;;;;23.37;39.82;99298.25;4516103;31;34273;-61
2021/04/20 01:51:27;;;;;;;10.57;3.37;;;;;;;23.37;39.87;99300.16;4516592;31;35348;-61
2021/04/20 01:53:54;;;;;;;8.13;3.87;;;;;;;23.37;39.83;99302.88;4523648;31;34019;-61
2021/04/20 01:56:21;;;;;;;9.20;3.97;;;;;;;23.38;39.92;99308.06;4523308;31;33712;-61
2021/04/20 01:58:48;;;;;;;7.97;3.72;;;;;;;23.36;40.04;99307.50;4532031;31;33593;-61
2021/04/20 02:01:23;;;;;;;7.55;3.53;;;;;;;23.35;40.05;99303.09;4524409;31;33759;-61
2021/04/20 02:03:51;;;;;;;9.82;3.30;;;;;;;23.36;40.10;99302.06;4500633;31;33941;-61
2021/04/20 02:06:19;;;;;;;10.40;3.53;;;;;;;23.36;39.93;99303.91;4523300;31;33795;-61
2021/04/20 02:08:48;;;;;;;10.85;3.10;;;;;;;23.36;39.94;99303.91;4501808;31;33080;-61
2021/04/20 02:11:26;;;;;;;8.35;3.40;;;;;;;23.34;39.98;99306.91;4521548;31;33598;-60
2021/04/20 02:13:54;;;;;;;12.18;3.33;;;;;;;23.37;39.99;99302.88;4523858;31;33660;-61
2021/04/20 02:16:21;;;;;;;13.20;3.85;;;;;;;23.36;40.02;99299.34;4488272;31;34293;-61
2021/04/20 02:18:50;;;;;;;8.93;3.85;;;;;;;23.34;40.07;99296.00;4501665;31;33193;-61
2021/04/20 02:21:18;;;;;;;10.55;3.42;;;;;;;23.35;39.99;99297.66;4522751;31;33891;-61
2021/04/20 02:23:45;;;;;;;8.18;3.65;;;;;;;23.35;39.91;99296.81;4497971;31;33901;-61
2021/04/20 02:26:15;;;;;;;8.25;3.60;;;;;;;23.34;39.90;99295.19;4522061;31;33424;-61
2021/04/20 02:28:42;;;;;;;9.55;3.60;;;;;;;23.33;39.96;99290.81;4504642;31;33332;-61
2021/04/20 02:31:10;;;;;;;8.65;3.22;;;;;;;23.33;39.88;99288.91;4516619;31;34648;-61
2021/04/20 02:33:37;;;;;;;9.18;3.55;;;;;;;23.33;39.80;99294.34;4526192;31;33853;-61
2021/04/20 02:36:05;;;;;;;10.82;3.70;;;;;;;23.33;39.90;99301.69;4515661;31;33715;-61
2021/04/20 02:38:33;;;;;;;8.90;3.37;;;;;;;23.33;39.97;99290.81;4515935;31;34015;-61
2021/04/20 02:41:02;;;;;;;8.30;3.60;;;;;;;23.32;40.00;99294.59;4520883;31;34652;-62
2021/04/20 02:43:30;;;;;;;;;;;;;;;23.30;39.92;99299.44;4527188;31;35121;-62
2021/04/20 02:46:00;;;;;;;9.65;3.50;;;;;;;23.41;39.90;99285.00;4520165;31;33976;-64
2021/04/20 02:48:28;;;;;;;6.28;3.20;;;;;;;23.32;40.10;99294.59;4531955;31;33269;-61
2021/04/20 02:50:55;;;;;;;10.38;3.08;;;;;;;23.31;40.05;99292.91;4526447;31;34515;-61
2021/04/20 02:53:23;;;;;;;16.52;3.75;;;;;;;23.31;40.08;99287.47;4488406;31;34716;-61
2021/04/20 02:55:50;;;;;;;10.30;3.60;;;;;;;23.32;40.02;99291.87;4515414;31;33434;-61
2021/04/20 02:58:20;;;;;;;9.25;3.35;;;;;;;23.29;39.98;99284.19;4501437;31;33884;-61
2021/04/20 03:01:06;;;;;;;8.52;3.55;;;;;;;23.27;39.89;99276.25;4504834;31;33667;-61
2021/04/20 03:03:40;;;;;;;11.02;3.40;;;;;;;23.30;39.72;99288.56;4512964;31;33630;-61
2021/04/20 03:06:07;;;;;;;7.72;3.60;;;;;;;23.27;39.78;99284.44;4500872;31;34276;-61
2021/04/20 03:08:35;;;;;;;6.82;3.28;;;;;;;23.27;39.74;99283.56;4500450;31;32924;-61
2021/04/20 03:11:16;;;;;;;9.77;3.03;;;;;;;23.26;39.84;99287.38;4492111;31;34025;-61
2021/04/20 03:13:44;;;;;;;8.70;3.35;;;;;;;23.26;39.84;99280.03;4515153;31;33815;-61
2021/04/20 03:16:28;;;;;;;10.27;3.53;;;;;;;23.24;39.77;99282.16;4515589;31;33722;-62
2021/04/20 03:18:57;;;;;;;11.10;3.87;;;;;;;23.25;39.82;99280.28;4518233;31;33317;-61
2021/04/20 03:21:24;;;;;;;7.00;3.17;;;;;;;23.24;39.82;99281.34;4524672;31;34635;-61
2021/04/20 03:23:54;;;;;;;11.12;3.78;;;;;;;23.24;39.75;99278.63;4501403;31;33839;-61
2021/04/20 03:26:24;;;;;;;8.30;3.20;;;;;;;23.23;39.83;99276.97;4500895;31;33636;-61
2021/04/20 03:28:53;;;;;;;9.80;3.53;;;;;;;23.23;39.75;99280.53;4515580;31;33321;-62
2021/04/20 03:31:20;;;;;;;9.00;3.60;;;;;;;23.22;39.78;99281.56;4502133;31;35535;-56
2021/04/20 03:33:51;;;;;;;10.00;3.55;;;;;;;23.22;39.76;99278.84;4523982;31;33595;-58
2021/04/20 03:36:23;;;;;;;7.90;3.12;;;;;;;23.21;39.77;99279.09;4501093;31;34230;-55
2021/04/20 03:39:00;;;;;;;7.20;3.47;;;;;;;23.21;39.77;99279.91;4516287;31;33267;-57
2021/04/20 03:41:30;;;;;;;10.15;3.53;;;;;;;23.22;39.77;99280.72;4516530;31;34030;-57
2021/04/20 03:43:58;;;;;;;;;;;;;;;23.20;39.93;99285.59;4517405;31;34633;-56
2021/04/20 03:46:27;;;;;;;9.07;3.12;;;;;;;23.31;39.66;99287.47;4517019;31;33946;-56
2021/04/20 03:49:13;;;;;;;5.68;3.30;;;;;;;23.21;39.87;99282.63;4516775;31;33393;-56
2021/04/20 03:51:42;;;;;;;8.57;2.90;;;;;;;23.21;39.78;99282.63;4524173;31;34615;-61
2021/04/20 03:54:09;;;;;;;7.47;3.08;;;;;;;23.18;39.81;99283.13;4514021;31;33597;-61
2021/04/20 03:56:36;;;;;;;7.68;2.90;;;;;;;23.17;39.88;99289.63;4503120;31;33698;-61
2021/04/20 03:59:04;;;;;;;6.47;3.33;;;;;;;23.17;39.92;99285.03;4503740;31;32781;-61
2021/04/20 04:01:36;;;;;;;7.07;2.70;;;;;;;23.17;39.88;99281.44;4516640;31;34313;-62
2021/04/20 04:04:06;;;;;;;5.85;2.83;;;;;;;23.16;39.94;99293.41;4503961;31;34398;-61
2021/04/20 04:06:34;;;;;;;7.62;3.30;;;;;;;23.16;39.96;99291.50;4516888;31;33781;-62
2021/04/20 04:09:02;;;;;;;8.60;3.30;;;;;;;23.15;40.04;99289.84;4503212;31;33308;-61
2021/04/20 04:11:33;;;;;;;11.38;3.08;;;;;;;23.16;39.99;99288.78;4516760;31;33481;-61
2021/04/20 04:14:00;;;;;;;;;;;;;;;23.16;40.13;99301.56;4503704;31;35434;-61
2021/04/20 04:16:27;;;;;;;6.68;3.40;;;;;;;23.26;39.94;99292.81;4516509;31;35084;-61
2021/04/20 04:18:57;;;;;;;10.15;3.10;;;;;;;23.20;40.21;99297.31;4517026;31;34667;-61
2021/04/20 04:21:26;;;;;;;8.18;2.70;;;;;;;23.16;40.24;99304.28;4503917;31;33749;-61
2021/04/20 04:23:55;;;;;;;5.95;2.87;;;;;;;23.15;40.12;99302.66;4518728;31;34741;-61
2021/04/20 04:26:29;;;;;;;10.07;3.33;;;;;;;23.14;40.37;99301.81;4505294;31;34592;-61
2021/04/20 04:28:57;;;;;;;6.53;3.08;;;;;;;23.13;40.22;99300.16;4518434;31;33351;-61
2021/04/20 04:31:27;;;;;;;6.65;2.95;;;;;;;23.13;40.29;99297.44;4533036;31;33812;-61
2021/04/20 04:33:54;;;;;;;6.93;3.00;;;;;;;23.14;40.26;99296.38;4505426;31;33802;-61
2021/04/20 04:36:21;;;;;;;8.15;3.15;;;;;;;23.14;40.26;99292.81;4532676;31;34513;-61
2021/04/20 04:38:49;;;;;;;6.70;2.62;;;;;;;23.15;40.23;99299.91;4532891;31;33456;-61
2021/04/20 04:41:16;;;;;;;9.65;3.00;;;;;;;23.15;40.35;99303.47;4513966;31;33968;-59
2021/04/20 04:43:43;;;;;;;8.27;2.83;;;;;;;23.14;40.31;99299.09;4498597;31;33944;-58
2021/04/20 04:46:10;;;;;;;7.53;2.78;;;;;;;23.13;40.03;99300.16;4514570;31;33635;-57
2021/04/20 04:48:37;;;;;;;10.45;2.92;;;;;;;23.15;40.08;99298.03;4521453;31;34071;-59
2021/04/20 04:51:05;;;;;;;11.18;3.15;;;;;;;23.15;40.12;99305.38;4515362;31;34669;-55
2021/04/20 04:53:33;;;;;;;6.95;3.20;;;;;;;23.14;40.13;99301.81;4518172;31;33777;-57
2021/04/20 04:56:01;;;;;;;9.82;3.20;;;;;;;23.14;40.08;99299.09;4518270;31;33810;-57
2021/04/20 04:58:30;;;;;;;9.23;2.97;;;;;;;23.14;40.19;99304.53;4532870;31;33394;-57
2021/04/20 05:01:02;;;;;;;5.93;3.17;;;;;;;23.15;40.19;99302.66;4518457;31;34044;-58
2021/04/20 05:03:29;;;;;;;5.03;3.03;;;;;;;23.14;40.25;99303.72;4532524;31;34283;-58
2021/04/20 05:05:57;;;;;;;7.07;2.95;;;;;;;23.14;40.15;99306.44;4513517;31;33616;-58
2021/04/20 05:08:25;;;;;;;12.52;3.03;;;;;;;23.14;40.27;99295.56;4516611;31;33967;-58
2021/04/20 05:10:52;;;;;;;7.60;2.90;;;;;;;23.14;40.31;99306.44;4526280;31;34058;-61
2021/04/20 05:13:38;;;;;;;7.70;3.03;;;;;;;23.14;40.33;99314.59;4516682;31;34929;-61
2021/04/20 05:16:06;;;;;;;8.45;2.85;;;;;;;23.15;40.17;99308.91;4515309;31;33801;-61
2021/04/20 05:18:37;;;;;;;8.10;2.72;;;;;;;23.12;40.28;99306.66;4516351;31;33391;-61
2021/04/20 05:21:05;;;;;;;8.38;2.70;;;;;;;23.11;40.22;99307.72;4516377;31;34617;-59
2021/04/20 05:23:32;;;;;;;6.37;2.67;;;;;;;23.11;40.26;99305.00;4502990;31;33776;-60
2021/04/20 05:25:59;;;;;;;6.20;2.60;;;;;;;23.12;40.14;99314.81;4517870;31;33695;-61
2021/04/20 05:28:27;;;;;;;9.02;2.60;;;;;;;23.11;40.43;99310.44;4523379;31;33275;-59
2021/04/20 05:30:54;;;;;;;9.13;3.10;;;;;;;23.12;40.44;99311.25;4521247;31;33825;-60
2021/04/20 05:33:21;;;;;;;11.65;2.97;;;;;;;23.12;40.46;99314.81;4522377;31;33964;-59
2021/04/20 05:35:48;;;;;;;9.13;3.05;;;;;;;23.12;40.19;99312.09;4515302;31;33732;-59
2021/04/20 05:38:18;;;;;;;9.75;3.40;;;;;;;23.12;40.22;99317.53;4531488;31;33255;-60
2021/04/20 05:40:46;;;;;;;11.32;2.70;;;;;;;23.11;40.26;99310.44;4532162;31;33606;-60
2021/04/20 05:43:14;;;;;;;9.45;3.22;;;;;;;23.12;40.24;99311.25;4532471;31;34656;-59
2021/04/20 05:45:41;;;;;;;7.32;2.75;;;;;;;23.11;40.18;99317.78;4532247;31;34565;-59
2021/04/20 05:48:08;;;;;;;7.18;2.90;;;;;;;23.11;40.18;99315.87;4509779;31;33858;-61
2021/04/20 05:50:36;;;;;;;15.52;3.42;;;;;;;23.10;40.17;99316.13;4500134;31;33790;-60
2021/04/20 05:53:03;;;;;;;25.98;3.80;;;;;;;23.09;40.23;99319.94;4522786;31;34680;-60
2021/04/20 05:55:30;;;;;;;18.10;5.07;;;;;;;23.08;40.01;99319.09;4514704;31;34434;-60
2021/04/20 05:57:58;;;;;;;26.67;5.65;;;;;;;23.08;39.67;99315.53;4531145;31;34115;-59
2021/04/20 06:00:25;;;;;;;11.90;4.80;;;;;;;23.07;39.53;99313.88;4504384;31;33754;-60
2021/04/20 06:02:53;;;;;;;19.98;4.57;;;;;;;23.05;39.57;99314.13;4529463;31;34794;-59
2021/04/20 06:05:21;;;;;;;11.00;4.50;;;;;;;23.06;39.52;99317.66;4515537;31;33833;-59
2021/04/20 06:07:59;;;;;;;17.05;5.43;;;;;;;23.04;39.37;99315.19;4512692;31;33931;-60
2021/04/20 06:10:27;;;;;;;11.82;5.75;;;;;;;23.01;39.39;99312.94;4518135;31;33832;-60
2021/04/20 06:12:54;;;;;;;16.42;6.35;;;;;;;23.02;39.27;99319.19;4514756;31;34811;-56
2021/04/20 06:15:22;;;;;;;14.98;6.75;;;;;;;23.01;39.21;99320.25;4516606;31;33878;-59
2021/04/20 06:17:52;;;;;;;18.42;6.80;;;;;;;23.01;38.99;99318.38;4503526;31;33101;-62
2021/04/20 06:20:21;;;;;;;13.90;6.93;;;;;;;23.02;38.97;99320.03;4517911;31;34840;-59
2021/04/20 06:22:49;;;;;;;15.82;6.87;;;;;;;23.10;38.79;99325.13;4510422;31;33989;-60
2021/04/20 06:25:17;;;;;;;13.07;6.15;;;;;;;23.17;38.62;99331.28;4512437;31;33652;-58
2021/04/20 06:27:46;;;;;;;17.48;5.97;;;;;;;23.27;38.43;99325.25;4501601;31;33422;-60
2021/04/20 06:30:14;;;;;;;18.62;6.28;;;;;;;23.35;38.12;99322.16;4501573;31;33816;-61
2021/04/20 06:32:42;;;;;;;19.95;6.25;;;;;;;23.47;37.92;99319.44;4514810;31;33435;-59
2021/04/20 06:35:15;;;;;;;16.17;6.32;;;;;;;23.56;37.77;99323.44;4514833;31;33878;-59
2021/04/20 06:37:46;;;;;;;19.33;6.20;;;;;;;23.66;37.61;99325.59;4515900;31;33398;-59
2021/04/20 06:40:25;;;;;;;18.52;6.47;;;;;;;23.73;37.36;99329.00;4514758;31;33777;-59
2021/04/20 06:43:00;;;;;;;15.80;6.12;;;;;;;23.84;37.37;99327.34;4516815;31;33631;-59
2021/04/20 06:45:35;;;;;;;16.60;5.25;;;;;;;23.91;37.24;99336.19;4495082;31;33536;-55
2021/04/20 06:48:28;;;;;;;15.25;5.47;;;;;;;23.99;37.19;99337.72;4528048;31;34091;-59
2021/04/20 06:50:56;;;;;;;18.95;5.70;;;;;;;24.08;37.11;99339.84;4510383;31;34671;-56
2021/04/20 06:53:28;;;;;;;16.58;5.18;;;;;;;24.12;37.17;99345.63;4509882;31;33869;-60
2021/04/20 06:56:07;;;;;;;12.00;5.28;;;;;;;24.18;37.24;99339.22;4519021;31;34506;-55
2021/04/20 06:59:15;;;;;;;14.00;5.20;;;;;;;24.23;37.29;99339.31;4511315;31;32171;-54
2021/04/20 07:01:47;;;;;;;14.30;5.15;;;;;;;24.29;37.31;99341.03;4517020;31;33737;-55
2021/04/20 07:04:31;;;;;;;13.90;5.12;;;;;;;24.31;37.39;99349.00;4492772;31;33975;-56
2021/04/20 07:07:11;;;;;;;9.70;4.72;;;;;;;24.33;37.46;99355.84;4501955;31;33724;-54
2021/04/20 07:09:44;;;;;;;15.00;4.87;;;;;;;24.34;37.54;99357.53;4514859;31;33370;-55
2021/04/20 07:12:11;;;;;;;14.13;4.80;;;;;;;24.34;37.55;99343.91;4501097;31;33624;-53
2021/04/20 07:14:50;;;;;;;12.85;4.85;;;;;;;24.35;37.60;99352.91;4511557;31;33882;-57
2021/04/20 07:17:33;;;;;;;13.95;5.22;;;;;;;24.36;37.61;99362.72;4500599;31;33600;-54
2021/04/20 07:20:18;;;;;;;9.77;4.28;;;;;;;24.34;37.74;99356.69;4499701;31;33523;-52
2021/04/20 07:22:50;;;;;;;11.93;4.45;;;;;;;24.35;37.82;99361.91;4514511;31;35288;-51
2021/04/20 07:25:21;;;;;;;11.75;4.65;;;;;;;24.32;37.89;99358.84;4514640;31;34674;-50
2021/04/20 07:28:10;;;;;;;12.43;4.28;;;;;;;24.31;37.98;99363.47;4514851;31;34028;-59
2021/04/20 07:30:49;;;;;;;8.52;4.20;;;;;;;24.34;38.01;99357.53;4500003;31;33401;-53
2021/04/20 07:33:57;;;;;;;14.27;4.78;;;;;;;24.32;38.10;99354.19;4500315;31;33703;-54
2021/04/20 07:36:41;;;;;;;17.25;5.18;;;;;;;24.33;38.14;99353.13;4450950;32;33768;-53
2021/04/20 07:39:17;;;;;;;14.65;4.90;;;;;;;24.30;38.22;99355.53;4451541;32;33597;-59
2021/04/20 07:42:21;;;;;;;10.82;4.37;;;;;;;24.27;38.31;99361.47;4472512;31;33188;-52
2021/04/20 07:44:59;;;;;;;8.02;4.25;;;;;;;24.24;38.36;99359.22;4523199;31;35427;-57
2021/04/20 07:47:26;;;;;;;8.05;4.07;;;;;;;24.18;38.46;99363.75;4501190;31;33554;-51
2021/04/20 07:50:06;;;;;;;9.65;4.65;;;;;;;24.17;38.53;99360.19;4502652;31;33756;-57
2021/04/20 07:52:38;;;;;;;12.82;4.35;;;;;;;24.17;38.62;99367.53;4503789;31;33961;-59
2021/04/20 07:55:17;;;;;;;11.65;4.37;;;;;;;24.12;38.65;99368.25;4516793;31;33808;-55
2021/04/20 07:57:47;;;;;;;12.68;4.47;;;;;;;24.13;38.69;99363.63;4530211;31;33836;-60
2021/04/20 08:00:15;;;;;;;;;;;;;;;24.10;38.84;99358.66;4503584;31;34378;-55
2021/04/20 08:03:07;;;;;;;10.05;4.05;;;;;;;24.18;38.66;99361.84;4515897;31;34022;-56
2021/04/20 08:06:09;;;;;;;7.00;4.28;;;;;;;24.10;38.81;99364.94;4514621;31;33826;-54
2021/04/20 08:08:46;;;;;;;7.30;4.32;;;;;;;24.07;38.94;99357.25;4500532;31;34810;-55
2021/04/20 08:11:26;;;;;;;9.15;4.32;;;;;;;24.06;39.04;99361.06;4514312;31;33664;-51
2021/04/20 08:14:15;;;;;;;8.25;4.00;;;;;;;24.04;39.10;99360.47;4514718;31;33371;-54
2021/04/20 08:16:49;;;;;;;12.40;4.40;;;;;;;24.05;39.17;99369.47;4513384;31;34574;-60
2021/04/20 08:19:25;;;;;;;9.80;3.87;;;;;;;24.00;39.28;99363.91;4514505;31;33689;-49
2021/04/20 08:21:52;;;;;;;9.70;3.90;;;;;;;24.03;39.24;99358.81;4500448;31;34901;-60
2021/04/20 08:24:40;;;;;;;9.02;4.43;;;;;;;24.03;39.21;99366.97;4513420;31;33251;-60
2021/04/20 08:27:15;;;;;;;10.10;3.55;;;;;;;24.02;39.23;99362.59;4514623;31;34576;-56
2021/04/20 08:29:43;;;;;;;9.18;3.90;;;;;;;23.98;39.31;99366.88;4513176;31;33524;-56
2021/04/20 08:32:12;;;;;;;11.43;4.50;;;;;;;23.96;39.37;99374.44;4499911;31;33353;-57
2021/04/20 08:34:57;;;;;;;7.90;3.75;;;;;;;23.94;39.38;99371.16;4500309;31;33132;-58
2021/04/20 08:37:35;;;;;;;12.00;4.20;;;;;;;23.98;39.31;99368.78;4499492;31;33924;-57
2021/04/20 08:40:15;;;;;;;9.90;4.20;;;;;;;23.95;39.42;99372.81;4511407;31;33487;-57
2021/04/20 08:43:07;;;;;;;14.60;4.40;;;;;;;23.95;39.44;99372.81;4513910;31;33795;-58
2021/04/20 08:45:46;;;;;;;17.62;4.82;;;;;;;23.92;39.48;99371.41;4500105;31;33190;-54
2021/04/20 08:48:19;;;;;;;13.57;4.43;;;;;;;23.92;39.44;99376.00;4508982;31;34789;-56
2021/04/20 08:51:07;;;;;;;9.75;4.25;;;;;;;23.95;39.49;99369.25;4499752;31;34538;-54
2021/04/20 08:53:53;;;;;;;10.85;3.97;;;;;;;24.11;39.34;99363.06;4518290;31;34747;-54
2021/04/20 08:56:32;;;;;;;12.57;4.07;;;;;;;24.26;39.16;99359.81;4513624;31;34111;-53
2021/04/20 08:59:11;;;;;;;7.62;3.70;;;;;;;24.48;38.91;99362.69;4512994;31;33837;-51
2021/04/20 09:01:44;;;;;;;7.97;3.87;;;;;;;24.63;38.67;99358.38;4513985;31;35324;-54
2021/04/20 09:04:55;;;;;;;11.38;4.30;;;;;;;24.83;38.43;99362.53;4524183;31;33783;-55
2021/04/20 09:07:32;;;;;;;9.23;3.58;;;;;;;25.03;38.19;99359.31;4505407;31;34103;-60
2021/04/20 09:10:16;;;;;;;12.95;4.60;;;;;;;25.17;37.99;99356.03;4517857;31;34843;-52
2021/04/20 09:12:45;;;;;;;8.30;3.92;;;;;;;25.31;37.79;99361.16;4531888;31;33959;-58
2021/04/20 09:15:16;;;;;;;8.10;3.47;;;;;;;25.46;37.60;99350.50;4517224;31;33532;-58
2021/04/20 09:17:51;;;;;;;9.25;3.72;;;;;;;25.59;37.42;99354.75;4507430;31;33028;-54
2021/04/20 09:20:38;;;;;;;7.25;3.50;;;;;;;25.72;37.23;99357.12;4502592;31;33909;-54
2021/04/20 09:23:35;;;;;;;8.85;3.70;;;;;;;25.85;37.14;99348.59;4502058;31;33869;-54
2021/04/20 09:26:33;;;;;;;8.63;3.40;;;;;;;26.01;36.95;99348.78;4489891;31;33483;-54
2021/04/20 09:29:01;;;;;;;9.80;3.50;;;;;;;26.13;36.78;99350.31;4516119;31;33892;-53
2021/04/20 09:31:33;;;;;;;6.65;3.25;;;;;;;26.23;36.66;99346.03;4516179;31;33541;-56
2021/04/20 09:34:01;;;;;;;8.50;3.50;;;;;;;26.31;36.55;99346.41;4502318;31;35012;-57
2021/04/20 09:36:28;;;;;;;8.45;3.65;;;;;;;26.42;36.42;99339.97;4501326;31;33785;-59
2021/04/20 09:38:55;;;;;;;15.18;4.22;;;;;;;26.51;36.28;99348.56;4510560;31;32218;-52
2021/04/20 09:41:28;;;;;;;8.18;3.42;;;;;;;26.59;36.18;99342.62;4489742;31;34700;-60
2021/04/20 09:44:18;;;;;;;7.72;3.60;;;;;;;26.68;36.04;99346.56;4530972;31;33821;-58
2021/04/20 09:46:49;;;;;;;10.70;3.80;;;;;;;26.76;35.91;99342.50;4532144;31;33653;-58
2021/04/20 09:49:37;;;;;;;10.93;3.53;;;;;;;26.86;35.79;99341.75;4532069;31;33365;-57
2021/04/20 09:52:11;;;;;;;10.25;3.42;;;;;;;26.95;35.68;99334.72;4532383;31;33443;-51
2021/04/20 09:54:52;;;;;;;12.68;3.67;;;;;;;27.00;35.67;99334.81;4509385;31;35498;-53
2021/04/20 09:57:20;;;;;;;8.50;3.15;;;;;;;27.08;35.58;99333.47;4514502;31;33335;-54
2021/04/20 10:00:00;;;;;;;11.30;3.58;;;;;;;27.13;35.54;99339.00;4514778;31;33382;-59
2021/04/20 10:02:37;;;;;;;10.35;3.33;;;;;;;27.18;35.50;99334.38;4515885;31;35226;-51
2021/04/20 10:05:10;;;;;;;7.55;3.30;;;;;;;27.19;35.50;99336.06;4525922;31;35482;-51
2021/04/20 10:07:40;;;;;;;11.20;3.20;;;;;;;27.24;35.48;99340.75;4531764;31;34300;-56
2021/04/20 10:10:16;;;;;;;7.30;3.55;;;;;;;27.23;35.49;99333.59;4517489;31;33620;-53
2021/04/20 10:12:58;;;;;;;7.80;3.70;;;;;;;27.26;35.46;99335.81;4532100;31;33513;-51
2021/04/20 10:15:46;;;;;;;11.23;3.47;;;;;;;27.24;35.52;99335.28;4504839;31;33909;-54
2021/04/20 10:18:31;;;;;;;8.30;3.30;;;;;;;27.24;35.59;99334.47;4489540;31;34561;-59
2021/04/20 10:21:16;;;;;;;8.25;3.40;;;;;;;27.21;35.63;99335.78;4501730;31;33900;-52
2021/04/20 10:24:03;;;;;;;6.80;3.30;;;;;;;27.13;35.76;99328.88;4501824;31;33842;-51
2021/04/20 10:27:03;;;;;;;7.68;3.62;;;;;;;27.12;35.87;99332.72;4516875;31;34732;-58
2021/04/20 10:29:42;;;;;;;9.85;3.22;;;;;;;27.07;35.97;99326.34;4506330;31;34303;-59
2021/04/20 10:32:18;;;;;;;8.68;3.10;;;;;;;27.00;36.16;99329.31;4504388;31;33238;-55
2021/04/20 10:34:48;;;;;;;6.15;3.37;;;;;;;26.95;36.25;99329.25;4509658;31;33760;-60
2021/04/20 10:37:18;;;;;;;8.35;3.40;;;;;;;26.88;36.30;99320.44;4501350;31;34001;-60
2021/04/20 10:39:55;;;;;;;9.57;3.90;;;;;;;26.83;36.31;99323.97;4500955;31;34464;-59
2021/04/20 10:42:31;;;;;;;10.70;3.80;;;;;;;26.79;36.40;99319.28;4516921;31;33235;-59
2021/04/20 10:44:59;;;;;;;9.18;3.62;;;;;;;26.73;36.39;99314.84;4511603;31;34022;-60
2021/04/20 10:47:27;;;;;;;13.05;4.15;;;;;;;26.66;36.47;99307.66;4503957;31;33954;-60
2021/04/20 10:49:57;;;;;;;8.73;3.40;;;;;;;26.62;36.53;99306.53;4514680;31;33480;-55
2021/04/20 10:52:27;;;;;;;10.27;3.75;;;;;;;26.57;36.65;99306.47;4514547;31;33494;-54
2021/04/20 10:54:55;;;;;;;;;;;;;;;26.53;36.72;99308.06;4504207;31;33797;-53
2021/04/20 10:57:22;;;;;;;8.88;3.30;;;;;;;26.59;36.58;99298.84;4517008;31;34064;-58
2021/04/20 10:59:54;;;;;;;8.95;3.65;;;;;;;26.45;36.77;99297.63;4504037;31;34135;-52
2021/04/20 11:02:22;;;;;;;8.98;3.75;;;;;;;26.37;36.88;99304.34;4517921;31;33227;-55
2021/04/20 11:04:50;;;;;;;12.35;3.58;;;;;;;26.31;36.96;99299.91;4524390;31;33599;-53
2021/04/20 11:07:23;;;;;;;8.38;3.80;;;;;;;26.27;37.10;99306.97;4515640;31;33941;-56
2021/04/20 11:10:02;;;;;;;6.68;3.28;;;;;;;26.23;37.14;99305.03;4515543;31;33788;-54
2021/04/20 11:12:30;;;;;;;8.43;3.58;;;;;;;26.19;37.17;99293.75;4515715;31;33052;-58
2021/04/20 11:14:57;;;;;;;9.73;3.58;;;;;;;26.15;37.25;99300.81;4509223;31;33867;-54
2021/04/20 11:17:43;;;;;;;10.32;3.97;;;;;;;26.10;37.32;99298.03;4515312;31;34515;-54
2021/04/20 11:20:43;;;;;;;11.25;4.20;;;;;;;26.08;37.36;99300.22;4515924;31;34299;-60
2021/04/20 11:23:26;;;;;;;;;;;;;;;26.02;37.44;99298.47;4510478;31;33277;-60
2021/04/20 11:25:54;;;;;;;11.73;3.60;;;;;;;26.05;37.38;99301.53;4515005;31;34906;-61
2021/04/20 11:28:35;;;;;;;7.90;3.53;;;;;;;25.90;37.65;99293.16;4515647;31;33898;-57
2021/04/20 11:31:05;;;;;;;10.15;3.75;;;;;;;25.85;37.72;99301.31;4501406;31;33747;-61
2021/04/20 11:33:41;;;;;;;11.77;3.47;;;;;;;25.78;37.74;99290.53;4515617;31;33405;-59
2021/04/20 11:36:16;;;;;;;10.85;3.85;;;;;;;25.76;37.73;99291.91;4502053;31;34645;-61
2021/04/20 11:38:56;;;;;;;14.10;4.12;;;;;;;25.72;37.78;99298.91;4515542;31;33845;-61
2021/04/20 11:41:42;;;;;;;13.85;4.20;;;;;;;25.67;37.81;99299.69;4499691;31;35106;-51
2021/04/20 11:44:09;;;;;;;16.20;4.30;;;;;;;25.65;37.60;99296.38;4503678;31;34206;-60
2021/04/20 11:46:38;;;;;;;10.38;3.55;;;;;;;25.60;37.65;99288.94;4531119;31;33457;-59
2021/04/20 11:49:18;;;;;;;11.50;4.45;;;;;;;25.58;37.63;99288.34;4503003;31;34420;-60
2021/04/20 11:51:46;;;;;;;13.27;3.70;;;;;;;25.54;37.67;99280.91;4489095;31;33176;-58
2021/04/20 11:54:20;;;;;;;20.23;5.68;;;;;;;25.51;37.69;99279.53;4490227;31;33374;-55
2021/04/20 11:56:47;;;;;;;14.40;3.97;;;;;;;25.48;37.78;99280.03;4523197;31;34720;-59